DAL540 KDEN-KATL
Flight info
| Callsign | DAL540 |
|---|---|
| Flight time | 2h 8m |
| Altitude | 35000 |
| Route | EPKEE7 GAETR KIRKE LUKKY HUTCC KNSAW RUSSA GLAVN2 |
| Aircraft | A321/M-SDE3FGHIRWY/LB1 |
Departure
| Time | 2026-05-06 07:10 |
|---|---|
| Airport | Denver International Airport (KDEN) |
Arrival
| Time | 2026-05-06 09:19 |
|---|---|
| Airport | Hartsfield Jackson Atlanta International Airport (KATL) |
| Time | Latitude | Longitude | Altitude | Speed | Heading |
|---|---|---|---|---|---|
| 2026-05-06 06:44 | 39.85447 | -104.67070 | 5384 ft | 0 kts | 189° |
| 2026-05-06 06:56 | 39.85462 | -104.67067 | 5385 ft | 2 kts | 191° |
| 2026-05-06 06:56 | 39.85478 | -104.67063 | 5385 ft | 2 kts | 193° |
| 2026-05-06 06:57 | 39.85494 | -104.67057 | 5384 ft | 2 kts | 206° |
| 2026-05-06 06:57 | 39.85508 | -104.67045 | 5384 ft | 2 kts | 215° |
| 2026-05-06 06:57 | 39.85521 | -104.67032 | 5379 ft | 2 kts | 216° |
| 2026-05-06 06:57 | 39.85535 | -104.67020 | 5382 ft | 2 kts | 217° |
| 2026-05-06 06:58 | 39.85548 | -104.67007 | 5380 ft | 2 kts | 218° |
| 2026-05-06 06:58 | 39.85561 | -104.66993 | 5380 ft | 2 kts | 220° |
| 2026-05-06 06:58 | 39.85573 | -104.66979 | 5378 ft | 2 kts | 224° |
| 2026-05-06 06:58 | 39.85585 | -104.66963 | 5380 ft | 2 kts | 235° |
| 2026-05-06 06:59 | 39.85589 | -104.66943 | 5377 ft | 2 kts | 271° |
| 2026-05-06 06:59 | 39.85589 | -104.66922 | 5377 ft | 2 kts | 271° |
| 2026-05-06 06:59 | 39.85589 | -104.66902 | 5381 ft | 1 kts | 271° |
| 2026-05-06 06:59 | 39.85589 | -104.66897 | 5381 ft | 0 kts | 271° |
| 2026-05-06 07:03 | 39.85588 | -104.66903 | 5383 ft | 2 kts | 269° |
| 2026-05-06 07:03 | 39.85589 | -104.66969 | 5383 ft | 13 kts | 271° |
| 2026-05-06 07:04 | 39.85589 | -104.67081 | 5382 ft | 12 kts | 270° |
| 2026-05-06 07:04 | 39.85590 | -104.67193 | 5381 ft | 12 kts | 271° |
| 2026-05-06 07:04 | 39.85591 | -104.67298 | 5382 ft | 10 kts | 270° |
| 2026-05-06 07:04 | 39.85592 | -104.67380 | 5383 ft | 8 kts | 270° |
| 2026-05-06 07:05 | 39.85592 | -104.67506 | 5378 ft | 19 kts | 271° |
| 2026-05-06 07:05 | 39.85592 | -104.67676 | 5380 ft | 17 kts | 271° |
| 2026-05-06 07:05 | 39.85594 | -104.67822 | 5380 ft | 16 kts | 271° |
| 2026-05-06 07:05 | 39.85595 | -104.67972 | 5379 ft | 17 kts | 271° |
| 2026-05-06 07:06 | 39.85597 | -104.68130 | 5377 ft | 17 kts | 271° |
| 2026-05-06 07:06 | 39.85598 | -104.68280 | 5376 ft | 16 kts | 271° |
| 2026-05-06 07:06 | 39.85599 | -104.68436 | 5373 ft | 18 kts | 267° |
| 2026-05-06 07:06 | 39.85522 | -104.68517 | 5371 ft | 15 kts | 182° |
| 2026-05-06 07:07 | 39.85428 | -104.68519 | 5372 ft | 13 kts | 181° |
| 2026-05-06 07:07 | 39.85340 | -104.68520 | 5372 ft | 15 kts | 180° |
| 2026-05-06 07:07 | 39.85225 | -104.68539 | 5374 ft | 17 kts | 218° |
| 2026-05-06 07:07 | 39.85204 | -104.68700 | 5368 ft | 22 kts | 266° |
| 2026-05-06 07:08 | 39.85198 | -104.68943 | 5358 ft | 30 kts | 269° |
| 2026-05-06 07:08 | 39.85198 | -104.69217 | 5347 ft | 31 kts | 271° |
| 2026-05-06 07:08 | 39.85203 | -104.69483 | 5337 ft | 19 kts | 270° |
| 2026-05-06 07:08 | 39.85227 | -104.69635 | 5338 ft | 16 kts | 318° |
| 2026-05-06 07:09 | 39.85327 | -104.69658 | 5338 ft | 14 kts | 1° |
| 2026-05-06 07:09 | 39.85451 | -104.69657 | 5338 ft | 35 kts | 0° |
| 2026-05-06 07:09 | 39.85897 | -104.69651 | 5340 ft | 93 kts | 0° |
| 2026-05-06 07:09 | 39.86745 | -104.69641 | 5336 ft | 149 kts | 0° |
| 2026-05-06 07:10 | 39.87944 | -104.69628 | 5431 ft | 192 kts | 0° |
| 2026-05-06 07:10 | 39.88847 | -104.69642 | 5926 ft | 198 kts | 360° |
| 2026-05-06 07:10 | 39.90247 | -104.69677 | 6793 ft | 205 kts | 1° |
| 2026-05-06 07:10 | 39.92163 | -104.69706 | 7842 ft | 208 kts | 1° |
| 2026-05-06 07:11 | 39.93622 | -104.69699 | 8561 ft | 216 kts | 6° |
| 2026-05-06 07:11 | 39.94611 | -104.69291 | 8727 ft | 229 kts | 32° |
| 2026-05-06 07:11 | 39.95658 | -104.67622 | 8846 ft | 254 kts | 76° |
| 2026-05-06 07:11 | 39.95662 | -104.65327 | 9262 ft | 268 kts | 111° |
| 2026-05-06 07:12 | 39.94566 | -104.63334 | 9843 ft | 279 kts | 144° |
| 2026-05-06 07:12 | 39.92857 | -104.61986 | 10126 ft | 296 kts | 150° |
| 2026-05-06 07:12 | 39.91145 | -104.60618 | 10010 ft | 284 kts | 146° |
| 2026-05-06 07:12 | 39.89565 | -104.59052 | 10006 ft | 285 kts | 139° |
| 2026-05-06 07:13 | 39.88157 | -104.57256 | 10008 ft | 284 kts | 131° |
| 2026-05-06 07:13 | 39.87002 | -104.55159 | 10027 ft | 284 kts | 119° |
| 2026-05-06 07:13 | 39.86152 | -104.52831 | 10023 ft | 284 kts | 114° |
| 2026-05-06 07:13 | 39.85368 | -104.50474 | 10024 ft | 285 kts | 116° |
| 2026-05-06 07:14 | 39.84480 | -104.48168 | 10027 ft | 284 kts | 118° |
| 2026-05-06 07:14 | 39.83551 | -104.45894 | 10026 ft | 285 kts | 118° |
| 2026-05-06 07:14 | 39.82652 | -104.43598 | 10024 ft | 284 kts | 117° |
| 2026-05-06 07:14 | 39.81774 | -104.41298 | 10019 ft | 284 kts | 117° |
| 2026-05-06 07:15 | 39.80907 | -104.38988 | 10023 ft | 284 kts | 113° |
| 2026-05-06 07:15 | 39.80125 | -104.36630 | 10022 ft | 284 kts | 115° |
| 2026-05-06 07:15 | 39.79288 | -104.34335 | 10037 ft | 288 kts | 116° |
| 2026-05-06 07:15 | 39.78440 | -104.31961 | 10822 ft | 287 kts | 115° |
| 2026-05-06 07:16 | 39.77603 | -104.29528 | 11417 ft | 304 kts | 115° |
| 2026-05-06 07:16 | 39.76709 | -104.26933 | 11833 ft | 325 kts | 115° |
| 2026-05-06 07:16 | 39.75746 | -104.24166 | 12238 ft | 346 kts | 115° |
| 2026-05-06 07:16 | 39.74735 | -104.21273 | 13026 ft | 353 kts | 115° |
| 2026-05-06 07:17 | 39.73714 | -104.18345 | 13864 ft | 361 kts | 115° |
| 2026-05-06 07:17 | 39.72665 | -104.15339 | 14516 ft | 369 kts | 116° |
| 2026-05-06 07:17 | 39.71593 | -104.12283 | 15285 ft | 374 kts | 116° |
| 2026-05-06 07:17 | 39.70494 | -104.09192 | 15982 ft | 380 kts | 116° |
| 2026-05-06 07:18 | 39.69378 | -104.06048 | 16695 ft | 386 kts | 116° |
| 2026-05-06 07:18 | 39.68250 | -104.02860 | 17400 ft | 392 kts | 116° |
| 2026-05-06 07:18 | 39.67119 | -103.99666 | 18078 ft | 397 kts | 117° |
| 2026-05-06 07:18 | 39.65952 | -103.96383 | 18722 ft | 402 kts | 117° |
| 2026-05-06 07:19 | 39.64664 | -103.93151 | 19336 ft | 405 kts | 121° |
| 2026-05-06 07:19 | 39.63330 | -103.89905 | 19940 ft | 410 kts | 120° |
| 2026-05-06 07:19 | 39.62017 | -103.86600 | 20536 ft | 414 kts | 120° |
| 2026-05-06 07:19 | 39.60667 | -103.83279 | 21131 ft | 418 kts | 121° |
| 2026-05-06 07:20 | 39.59304 | -103.79934 | 21705 ft | 423 kts | 117° |
| 2026-05-06 07:20 | 39.58245 | -103.76343 | 22261 ft | 429 kts | 112° |
| 2026-05-06 07:20 | 39.57242 | -103.72673 | 22810 ft | 434 kts | 112° |
| 2026-05-06 07:20 | 39.56208 | -103.68986 | 23362 ft | 437 kts | 114° |
| 2026-05-06 07:21 | 39.55138 | -103.65272 | 23855 ft | 442 kts | 114° |
| 2026-05-06 07:21 | 39.54071 | -103.61525 | 24334 ft | 444 kts | 113° |
| 2026-05-06 07:21 | 39.53013 | -103.57748 | 24806 ft | 447 kts | 113° |
| 2026-05-06 07:21 | 39.51940 | -103.53950 | 25251 ft | 450 kts | 114° |
| 2026-05-06 07:22 | 39.50850 | -103.50139 | 25700 ft | 452 kts | 114° |
| 2026-05-06 07:22 | 39.49753 | -103.46301 | 26137 ft | 455 kts | 113° |
| 2026-05-06 07:22 | 39.48657 | -103.42442 | 26574 ft | 458 kts | 113° |
| 2026-05-06 07:22 | 39.47552 | -103.38561 | 26985 ft | 461 kts | 114° |
| 2026-05-06 07:23 | 39.46435 | -103.34660 | 27403 ft | 463 kts | 114° |
| 2026-05-06 07:23 | 39.45325 | -103.30792 | 27803 ft | 466 kts | 114° |
| 2026-05-06 07:23 | 39.44194 | -103.26847 | 28207 ft | 469 kts | 113° |
| 2026-05-06 07:23 | 39.43056 | -103.22878 | 28602 ft | 471 kts | 114° |
| 2026-05-06 07:24 | 39.41909 | -103.18890 | 28992 ft | 474 kts | 114° |
| 2026-05-06 07:24 | 39.40751 | -103.14877 | 29374 ft | 477 kts | 114° |
| 2026-05-06 07:24 | 39.39590 | -103.10853 | 29749 ft | 479 kts | 114° |
| 2026-05-06 07:24 | 39.38421 | -103.06804 | 30106 ft | 482 kts | 114° |
| 2026-05-06 07:25 | 39.37244 | -103.02736 | 30411 ft | 484 kts | 114° |
| 2026-05-06 07:25 | 39.36058 | -102.98647 | 30701 ft | 487 kts | 114° |
| 2026-05-06 07:25 | 39.34962 | -102.94487 | 30973 ft | 494 kts | 105° |
| 2026-05-06 07:25 | 39.34365 | -102.90089 | 31230 ft | 499 kts | 102° |
| 2026-05-06 07:26 | 39.33864 | -102.85637 | 31485 ft | 502 kts | 101° |
| 2026-05-06 07:26 | 39.33346 | -102.81171 | 31853 ft | 502 kts | 102° |
| 2026-05-06 07:26 | 39.32780 | -102.76716 | 32195 ft | 503 kts | 103° |
| 2026-05-06 07:26 | 39.32211 | -102.72245 | 32509 ft | 505 kts | 103° |
| 2026-05-06 07:27 | 39.31670 | -102.67764 | 32823 ft | 506 kts | 103° |
| 2026-05-06 07:27 | 39.31130 | -102.63264 | 33128 ft | 508 kts | 103° |
| 2026-05-06 07:27 | 39.30567 | -102.58756 | 33427 ft | 509 kts | 104° |
| 2026-05-06 07:27 | 39.29994 | -102.54244 | 33718 ft | 510 kts | 104° |
| 2026-05-06 07:28 | 39.29437 | -102.49768 | 33991 ft | 512 kts | 104° |
| 2026-05-06 07:28 | 39.28876 | -102.45216 | 34238 ft | 513 kts | 104° |
| 2026-05-06 07:28 | 39.27722 | -102.36079 | 34669 ft | 516 kts | 105° |
| 2026-05-06 07:29 | 39.27141 | -102.31498 | 34888 ft | 518 kts | 105° |
| 2026-05-06 07:29 | 39.26563 | -102.26899 | 35083 ft | 520 kts | 105° |
| 2026-05-06 07:29 | 39.25374 | -102.17594 | 35095 ft | 529 kts | 105° |
| 2026-05-06 07:30 | 39.24186 | -102.08288 | 35100 ft | 530 kts | 105° |
| 2026-05-06 07:30 | 39.22970 | -101.98898 | 35103 ft | 532 kts | 105° |
| 2026-05-06 07:31 | 39.21750 | -101.89482 | 35097 ft | 533 kts | 105° |
| 2026-05-06 07:31 | 39.20512 | -101.80032 | 35099 ft | 535 kts | 106° |
| 2026-05-06 07:32 | 39.19267 | -101.70561 | 35104 ft | 536 kts | 106° |
| 2026-05-06 07:32 | 39.18006 | -101.61060 | 35096 ft | 539 kts | 106° |
| 2026-05-06 07:33 | 39.16735 | -101.51522 | 35099 ft | 541 kts | 107° |
| 2026-05-06 07:33 | 39.15449 | -101.41941 | 35114 ft | 543 kts | 107° |
| 2026-05-06 07:34 | 39.14151 | -101.32330 | 35116 ft | 545 kts | 107° |
| 2026-05-06 07:34 | 39.12841 | -101.22693 | 35117 ft | 547 kts | 107° |
| 2026-05-06 07:35 | 39.11527 | -101.13090 | 35119 ft | 549 kts | 107° |
| 2026-05-06 07:35 | 39.10189 | -101.03377 | 35124 ft | 551 kts | 108° |
| 2026-05-06 07:36 | 39.08841 | -100.93646 | 35116 ft | 552 kts | 108° |
| 2026-05-06 07:36 | 39.07870 | -100.88943 | 35136 ft | 534 kts | 123° |
| 2026-05-06 07:36 | 39.06320 | -100.84637 | 35112 ft | 529 kts | 127° |
| 2026-05-06 07:37 | 39.03029 | -100.76186 | 35106 ft | 528 kts | 127° |
| 2026-05-06 07:37 | 38.99798 | -100.67686 | 35109 ft | 529 kts | 128° |
| 2026-05-06 07:38 | 38.96515 | -100.59211 | 35109 ft | 530 kts | 128° |
| 2026-05-06 07:38 | 38.93265 | -100.50765 | 35116 ft | 531 kts | 128° |
| 2026-05-06 07:39 | 38.89967 | -100.42261 | 35119 ft | 532 kts | 128° |
| 2026-05-06 07:39 | 38.86668 | -100.33755 | 35117 ft | 532 kts | 128° |
| 2026-05-06 07:40 | 38.83356 | -100.25252 | 35120 ft | 533 kts | 129° |
| 2026-05-06 07:40 | 38.80039 | -100.16755 | 35120 ft | 533 kts | 129° |
| 2026-05-06 07:41 | 38.76713 | -100.08260 | 35120 ft | 533 kts | 129° |
| 2026-05-06 07:41 | 38.73376 | -99.99762 | 35116 ft | 534 kts | 129° |
| 2026-05-06 07:42 | 38.70030 | -99.91258 | 35120 ft | 535 kts | 129° |
| 2026-05-06 07:42 | 38.66669 | -99.82750 | 35128 ft | 535 kts | 129° |
| 2026-05-06 07:43 | 38.63302 | -99.74243 | 35122 ft | 536 kts | 129° |
| 2026-05-06 07:43 | 38.59927 | -99.65740 | 35118 ft | 536 kts | 129° |
| 2026-05-06 07:44 | 38.56562 | -99.57287 | 35115 ft | 536 kts | 129° |
| 2026-05-06 07:44 | 38.53173 | -99.48798 | 35123 ft | 537 kts | 129° |
| 2026-05-06 07:45 | 38.49774 | -99.40307 | 35122 ft | 537 kts | 129° |
| 2026-05-06 07:45 | 38.46361 | -99.31803 | 35119 ft | 539 kts | 129° |
| 2026-05-06 07:46 | 38.42934 | -99.23288 | 35112 ft | 540 kts | 129° |
| 2026-05-06 07:46 | 38.39495 | -99.14766 | 35106 ft | 540 kts | 129° |
| 2026-05-06 07:47 | 38.36050 | -99.06254 | 35104 ft | 541 kts | 130° |
| 2026-05-06 07:47 | 38.32590 | -98.97729 | 35109 ft | 542 kts | 130° |
| 2026-05-06 07:48 | 38.29123 | -98.89207 | 35112 ft | 542 kts | 130° |
| 2026-05-06 07:48 | 38.25643 | -98.80680 | 35110 ft | 542 kts | 130° |
| 2026-05-06 07:49 | 38.22180 | -98.72215 | 35109 ft | 543 kts | 130° |
| 2026-05-06 07:49 | 38.18685 | -98.63697 | 35106 ft | 543 kts | 130° |
| 2026-05-06 07:50 | 38.15179 | -98.55175 | 35098 ft | 544 kts | 130° |
| 2026-05-06 07:50 | 38.11666 | -98.46655 | 35089 ft | 545 kts | 130° |
| 2026-05-06 07:51 | 38.08389 | -98.37895 | 35121 ft | 563 kts | 118° |
| 2026-05-06 07:51 | 38.06039 | -98.28350 | 35096 ft | 566 kts | 118° |
| 2026-05-06 07:52 | 38.03625 | -98.18846 | 35075 ft | 566 kts | 118° |
| 2026-05-06 07:52 | 38.01253 | -98.09386 | 35076 ft | 567 kts | 118° |
| 2026-05-06 07:53 | 37.98839 | -97.99885 | 35074 ft | 566 kts | 118° |
| 2026-05-06 07:53 | 37.96422 | -97.90369 | 35074 ft | 567 kts | 118° |
| 2026-05-06 07:54 | 37.93994 | -97.80854 | 35071 ft | 567 kts | 119° |
| 2026-05-06 07:54 | 37.91555 | -97.71342 | 35070 ft | 568 kts | 118° |
| 2026-05-06 07:55 | 37.89110 | -97.61819 | 35070 ft | 568 kts | 119° |
| 2026-05-06 07:55 | 37.86647 | -97.52297 | 35057 ft | 569 kts | 118° |
| 2026-05-06 07:56 | 37.84605 | -97.44396 | 35054 ft | 568 kts | 119° |
| 2026-05-06 07:56 | 37.81731 | -97.33358 | 35070 ft | 568 kts | 119° |
| 2026-05-06 07:57 | 37.79256 | -97.23866 | 35063 ft | 568 kts | 119° |
| 2026-05-06 07:57 | 37.77171 | -97.15920 | 35060 ft | 568 kts | 119° |
| 2026-05-06 07:58 | 37.74696 | -97.06494 | 35073 ft | 569 kts | 119° |
| 2026-05-06 07:58 | 37.72190 | -96.97000 | 35056 ft | 570 kts | 119° |
| 2026-05-06 07:59 | 37.69674 | -96.87498 | 35055 ft | 570 kts | 119° |
| 2026-05-06 07:59 | 37.67150 | -96.78006 | 35062 ft | 571 kts | 119° |
| 2026-05-06 08:00 | 37.64616 | -96.68505 | 35060 ft | 571 kts | 119° |
| 2026-05-06 08:00 | 37.62075 | -96.59015 | 35055 ft | 571 kts | 119° |
| 2026-05-06 08:01 | 37.59526 | -96.49530 | 35052 ft | 571 kts | 119° |
| 2026-05-06 08:01 | 37.56988 | -96.40124 | 35059 ft | 571 kts | 119° |
| 2026-05-06 08:02 | 37.54425 | -96.30651 | 35054 ft | 571 kts | 119° |
| 2026-05-06 08:02 | 37.51854 | -96.21191 | 35049 ft | 570 kts | 119° |
| 2026-05-06 08:03 | 37.49277 | -96.11741 | 35040 ft | 570 kts | 119° |
| 2026-05-06 08:03 | 37.46697 | -96.02312 | 35036 ft | 569 kts | 119° |
| 2026-05-06 08:04 | 37.44109 | -95.92892 | 35033 ft | 569 kts | 119° |
| 2026-05-06 08:04 | 37.41514 | -95.83481 | 35030 ft | 570 kts | 119° |
| 2026-05-06 08:05 | 37.38910 | -95.74064 | 35026 ft | 569 kts | 119° |
| 2026-05-06 08:05 | 37.36300 | -95.64665 | 35020 ft | 569 kts | 119° |
| 2026-05-06 08:06 | 37.33687 | -95.55282 | 35015 ft | 569 kts | 119° |
| 2026-05-06 08:06 | 37.31065 | -95.45905 | 35018 ft | 568 kts | 119° |
| 2026-05-06 08:07 | 37.28456 | -95.36606 | 35019 ft | 568 kts | 119° |
| 2026-05-06 08:07 | 37.25819 | -95.27238 | 35032 ft | 568 kts | 119° |
| 2026-05-06 08:08 | 37.23178 | -95.17893 | 35024 ft | 568 kts | 119° |
| 2026-05-06 08:08 | 37.20529 | -95.08548 | 35017 ft | 569 kts | 119° |
| 2026-05-06 08:09 | 37.17874 | -94.99214 | 35014 ft | 568 kts | 119° |
| 2026-05-06 08:09 | 37.15210 | -94.89884 | 35009 ft | 568 kts | 119° |
| 2026-05-06 08:10 | 37.12539 | -94.80561 | 35010 ft | 568 kts | 119° |
| 2026-05-06 08:10 | 37.09859 | -94.71237 | 35016 ft | 568 kts | 119° |
| 2026-05-06 08:11 | 37.07179 | -94.61945 | 35022 ft | 567 kts | 120° |
| 2026-05-06 08:11 | 37.04490 | -94.52653 | 35014 ft | 567 kts | 120° |
| 2026-05-06 08:12 | 37.01817 | -94.43451 | 35018 ft | 566 kts | 120° |
| 2026-05-06 08:12 | 36.99117 | -94.34182 | 35012 ft | 566 kts | 120° |
| 2026-05-06 08:13 | 36.96414 | -94.24940 | 34997 ft | 565 kts | 120° |
| 2026-05-06 08:13 | 36.93709 | -94.15715 | 34984 ft | 565 kts | 120° |
| 2026-05-06 08:14 | 36.90993 | -94.06490 | 34984 ft | 565 kts | 120° |
| 2026-05-06 08:14 | 36.88286 | -93.97324 | 34980 ft | 565 kts | 120° |
| 2026-05-06 08:15 | 36.85555 | -93.88105 | 34980 ft | 565 kts | 120° |
| 2026-05-06 08:15 | 36.82819 | -93.78901 | 34990 ft | 565 kts | 120° |
| 2026-05-06 08:16 | 36.80076 | -93.69706 | 34979 ft | 565 kts | 120° |
| 2026-05-06 08:16 | 36.77325 | -93.60510 | 34968 ft | 565 kts | 120° |
| 2026-05-06 08:17 | 36.74566 | -93.51324 | 34960 ft | 565 kts | 120° |
| 2026-05-06 08:17 | 36.71803 | -93.42150 | 34956 ft | 566 kts | 120° |
| 2026-05-06 08:18 | 36.69042 | -93.33015 | 34953 ft | 566 kts | 120° |
| 2026-05-06 08:18 | 36.66262 | -93.23848 | 34954 ft | 566 kts | 120° |
| 2026-05-06 08:19 | 36.63469 | -93.14660 | 34981 ft | 567 kts | 120° |
| 2026-05-06 08:19 | 36.60666 | -93.05480 | 34977 ft | 568 kts | 120° |
| 2026-05-06 08:20 | 36.57854 | -92.96290 | 34974 ft | 568 kts | 120° |
| 2026-05-06 08:20 | 36.55033 | -92.87105 | 34970 ft | 568 kts | 120° |
| 2026-05-06 08:21 | 36.52204 | -92.77926 | 34972 ft | 568 kts | 120° |
| 2026-05-06 08:21 | 36.49391 | -92.68824 | 34960 ft | 567 kts | 120° |
| 2026-05-06 08:22 | 36.46553 | -92.59671 | 34975 ft | 567 kts | 120° |
| 2026-05-06 08:22 | 36.43713 | -92.50544 | 34981 ft | 567 kts | 120° |
| 2026-05-06 08:23 | 36.40866 | -92.41419 | 34981 ft | 566 kts | 120° |
| 2026-05-06 08:23 | 36.38013 | -92.32308 | 34977 ft | 566 kts | 120° |
| 2026-05-06 08:24 | 36.35158 | -92.23216 | 34965 ft | 565 kts | 120° |
| 2026-05-06 08:24 | 36.32293 | -92.14126 | 34957 ft | 566 kts | 120° |
| 2026-05-06 08:25 | 36.29421 | -92.05037 | 34949 ft | 566 kts | 120° |
| 2026-05-06 08:25 | 36.26560 | -91.96011 | 34943 ft | 566 kts | 120° |
| 2026-05-06 08:26 | 36.23670 | -91.86925 | 34948 ft | 566 kts | 120° |
| 2026-05-06 08:26 | 36.20771 | -91.77835 | 34943 ft | 567 kts | 120° |
| 2026-05-06 08:27 | 36.17868 | -91.68765 | 34939 ft | 566 kts | 120° |
| 2026-05-06 08:27 | 36.14961 | -91.59706 | 34944 ft | 566 kts | 120° |
| 2026-05-06 08:28 | 36.11967 | -91.50730 | 34941 ft | 562 kts | 122° |
| 2026-05-06 08:28 | 36.08964 | -91.41767 | 34942 ft | 565 kts | 121° |
| 2026-05-06 08:29 | 36.05887 | -91.32869 | 34941 ft | 562 kts | 122° |
| 2026-05-06 08:29 | 36.02848 | -91.24019 | 34939 ft | 563 kts | 121° |
| 2026-05-06 08:30 | 35.99784 | -91.15123 | 34943 ft | 562 kts | 122° |
| 2026-05-06 08:30 | 35.96702 | -91.06248 | 34940 ft | 563 kts | 121° |
| 2026-05-06 08:31 | 35.93633 | -90.97367 | 34943 ft | 562 kts | 122° |
| 2026-05-06 08:31 | 35.90540 | -90.88514 | 34922 ft | 562 kts | 122° |
| 2026-05-06 08:32 | 35.87461 | -90.79661 | 34919 ft | 561 kts | 122° |
| 2026-05-06 08:32 | 35.84359 | -90.70827 | 34915 ft | 561 kts | 122° |
| 2026-05-06 08:33 | 35.81267 | -90.61994 | 34915 ft | 561 kts | 122° |
| 2026-05-06 08:33 | 35.78156 | -90.53178 | 34919 ft | 561 kts | 122° |
| 2026-05-06 08:34 | 35.73511 | -90.40019 | 34914 ft | 561 kts | 122° |
| 2026-05-06 08:35 | 35.70392 | -90.31225 | 34907 ft | 560 kts | 122° |
| 2026-05-06 08:35 | 35.67272 | -90.22447 | 34907 ft | 559 kts | 122° |
| 2026-05-06 08:36 | 35.64151 | -90.13694 | 34905 ft | 559 kts | 122° |
| 2026-05-06 08:36 | 35.61025 | -90.04952 | 34893 ft | 558 kts | 122° |
| 2026-05-06 08:37 | 35.57895 | -89.96222 | 34882 ft | 557 kts | 122° |
| 2026-05-06 08:37 | 35.54764 | -89.87515 | 34872 ft | 557 kts | 122° |
| 2026-05-06 08:38 | 35.51634 | -89.78831 | 34873 ft | 555 kts | 122° |
| 2026-05-06 08:38 | 35.48503 | -89.70176 | 34869 ft | 554 kts | 122° |
| 2026-05-06 08:39 | 35.45398 | -89.61609 | 34868 ft | 553 kts | 122° |
| 2026-05-06 08:39 | 35.42268 | -89.53001 | 34863 ft | 552 kts | 122° |
| 2026-05-06 08:40 | 35.39142 | -89.44424 | 34860 ft | 550 kts | 122° |
| 2026-05-06 08:40 | 35.36013 | -89.35866 | 34856 ft | 549 kts | 122° |
| 2026-05-06 08:41 | 35.32886 | -89.27330 | 34854 ft | 548 kts | 121° |
| 2026-05-06 08:41 | 35.29762 | -89.18832 | 34854 ft | 547 kts | 121° |
| 2026-05-06 08:42 | 35.26638 | -89.10352 | 34862 ft | 546 kts | 121° |
| 2026-05-06 08:42 | 35.23530 | -89.01942 | 34851 ft | 546 kts | 121° |
| 2026-05-06 08:43 | 35.20400 | -88.93492 | 34850 ft | 545 kts | 121° |
| 2026-05-06 08:43 | 35.17265 | -88.85051 | 34851 ft | 545 kts | 121° |
| 2026-05-06 08:44 | 35.14122 | -88.76613 | 34850 ft | 545 kts | 121° |
| 2026-05-06 08:44 | 35.10979 | -88.68193 | 34853 ft | 544 kts | 121° |
| 2026-05-06 08:45 | 35.08373 | -88.61228 | 34849 ft | 541 kts | 120° |
| 2026-05-06 08:45 | 35.05243 | -88.52888 | 34835 ft | 539 kts | 120° |
| 2026-05-06 08:46 | 35.02120 | -88.44583 | 34838 ft | 537 kts | 120° |
| 2026-05-06 08:46 | 34.99004 | -88.36321 | 34840 ft | 535 kts | 119° |
| 2026-05-06 08:47 | 34.95892 | -88.28089 | 34836 ft | 534 kts | 119° |
| 2026-05-06 08:47 | 34.92780 | -88.19879 | 34848 ft | 534 kts | 119° |
| 2026-05-06 08:48 | 34.89658 | -88.11662 | 34851 ft | 533 kts | 119° |
| 2026-05-06 08:48 | 34.86553 | -88.03512 | 34863 ft | 533 kts | 118° |
| 2026-05-06 08:49 | 34.83429 | -87.95333 | 34879 ft | 533 kts | 118° |
| 2026-05-06 08:49 | 34.80303 | -87.87166 | 34886 ft | 532 kts | 118° |
| 2026-05-06 08:50 | 34.77171 | -87.79006 | 34891 ft | 532 kts | 118° |
| 2026-05-06 08:50 | 34.74030 | -87.70845 | 34894 ft | 533 kts | 118° |
| 2026-05-06 08:51 | 34.70885 | -87.62689 | 34898 ft | 533 kts | 118° |
| 2026-05-06 08:51 | 34.67727 | -87.54525 | 34895 ft | 534 kts | 118° |
| 2026-05-06 08:52 | 34.64565 | -87.46368 | 34892 ft | 533 kts | 118° |
| 2026-05-06 08:52 | 34.63123 | -87.42211 | 34890 ft | 535 kts | 106° |
| 2026-05-06 08:52 | 34.62249 | -87.37804 | 34893 ft | 539 kts | 103° |
| 2026-05-06 08:53 | 34.60683 | -87.28962 | 34884 ft | 539 kts | 103° |
| 2026-05-06 08:53 | 34.59012 | -87.20078 | 34894 ft | 540 kts | 103° |
| 2026-05-06 08:54 | 34.57390 | -87.11171 | 34904 ft | 541 kts | 103° |
| 2026-05-06 08:54 | 34.55799 | -87.02233 | 34907 ft | 543 kts | 101° |
| 2026-05-06 08:55 | 34.54261 | -86.93263 | 34901 ft | 543 kts | 108° |
| 2026-05-06 08:55 | 34.51948 | -86.84529 | 34901 ft | 544 kts | 109° |
| 2026-05-06 08:56 | 34.49731 | -86.75811 | 34904 ft | 544 kts | 108° |
| 2026-05-06 08:56 | 34.47425 | -86.67075 | 34901 ft | 544 kts | 109° |
| 2026-05-06 08:57 | 34.45146 | -86.58315 | 34822 ft | 547 kts | 108° |
| 2026-05-06 08:57 | 34.43995 | -86.53906 | 34521 ft | 543 kts | 109° |
| 2026-05-06 08:57 | 34.42851 | -86.49595 | 34602 ft | 537 kts | 109° |
| 2026-05-06 08:58 | 34.40551 | -86.40883 | 34603 ft | 544 kts | 110° |
| 2026-05-06 08:58 | 34.39231 | -86.36577 | 34492 ft | 547 kts | 114° |
| 2026-05-06 08:58 | 34.37704 | -86.32348 | 34045 ft | 544 kts | 117° |
| 2026-05-06 08:58 | 34.36184 | -86.28258 | 33536 ft | 535 kts | 115° |
| 2026-05-06 08:59 | 34.34830 | -86.24097 | 32977 ft | 528 kts | 111° |
| 2026-05-06 08:59 | 34.33565 | -86.19941 | 32225 ft | 524 kts | 112° |
| 2026-05-06 08:59 | 34.32209 | -86.15852 | 31493 ft | 520 kts | 115° |
| 2026-05-06 08:59 | 34.30788 | -86.11844 | 30780 ft | 517 kts | 115° |
| 2026-05-06 09:00 | 34.29422 | -86.07821 | 30077 ft | 514 kts | 113° |
| 2026-05-06 09:00 | 34.28131 | -86.03806 | 29281 ft | 510 kts | 113° |
| 2026-05-06 09:00 | 34.26824 | -85.99835 | 28481 ft | 506 kts | 114° |
| 2026-05-06 09:00 | 34.25480 | -85.95919 | 27708 ft | 502 kts | 115° |
| 2026-05-06 09:01 | 34.24152 | -85.92032 | 26959 ft | 499 kts | 114° |
| 2026-05-06 09:01 | 34.22863 | -85.88151 | 26228 ft | 495 kts | 114° |
| 2026-05-06 09:01 | 34.21587 | -85.84306 | 25523 ft | 491 kts | 114° |
| 2026-05-06 09:01 | 34.20295 | -85.80501 | 24828 ft | 487 kts | 115° |
| 2026-05-06 09:02 | 34.19029 | -85.76786 | 24345 ft | 478 kts | 115° |
| 2026-05-06 09:02 | 34.17791 | -85.73103 | 24328 ft | 456 kts | 114° |
| 2026-05-06 09:02 | 34.16643 | -85.69682 | 24317 ft | 436 kts | 115° |
| 2026-05-06 09:02 | 34.15520 | -85.66376 | 24303 ft | 415 kts | 115° |
| 2026-05-06 09:03 | 34.14440 | -85.63210 | 24302 ft | 403 kts | 115° |
| 2026-05-06 09:03 | 34.13366 | -85.60054 | 24052 ft | 410 kts | 115° |
| 2026-05-06 09:03 | 34.12286 | -85.56872 | 23502 ft | 410 kts | 115° |
| 2026-05-06 09:03 | 34.11205 | -85.53685 | 22846 ft | 410 kts | 115° |
| 2026-05-06 09:04 | 34.10120 | -85.50500 | 22188 ft | 410 kts | 115° |
| 2026-05-06 09:04 | 34.09034 | -85.47318 | 21557 ft | 410 kts | 115° |
| 2026-05-06 09:04 | 34.07951 | -85.44141 | 20933 ft | 410 kts | 115° |
| 2026-05-06 09:04 | 34.06866 | -85.40962 | 20337 ft | 409 kts | 115° |
| 2026-05-06 09:05 | 34.05783 | -85.37793 | 19742 ft | 408 kts | 116° |
| 2026-05-06 09:05 | 34.04701 | -85.34635 | 19163 ft | 407 kts | 116° |
| 2026-05-06 09:05 | 34.03621 | -85.31482 | 18593 ft | 407 kts | 116° |
| 2026-05-06 09:05 | 34.02543 | -85.28330 | 17994 ft | 406 kts | 116° |
| 2026-05-06 09:06 | 34.01466 | -85.25193 | 17350 ft | 404 kts | 116° |
| 2026-05-06 09:06 | 34.00405 | -85.22108 | 16724 ft | 402 kts | 116° |
| 2026-05-06 09:06 | 33.99336 | -85.19002 | 16105 ft | 400 kts | 116° |
| 2026-05-06 09:06 | 33.98270 | -85.15902 | 15495 ft | 398 kts | 116° |
| 2026-05-06 09:07 | 33.97213 | -85.12832 | 14905 ft | 395 kts | 116° |
| 2026-05-06 09:07 | 33.96164 | -85.09789 | 14316 ft | 391 kts | 116° |
| 2026-05-06 09:07 | 33.95122 | -85.06774 | 13748 ft | 388 kts | 116° |
| 2026-05-06 09:07 | 33.94093 | -85.03793 | 13102 ft | 384 kts | 116° |
| 2026-05-06 09:08 | 33.93071 | -85.00841 | 12474 ft | 381 kts | 116° |
| 2026-05-06 09:08 | 33.92055 | -84.97904 | 11859 ft | 378 kts | 116° |
| 2026-05-06 09:08 | 33.91046 | -84.94992 | 11256 ft | 375 kts | 116° |
| 2026-05-06 09:08 | 33.90043 | -84.92103 | 10658 ft | 371 kts | 116° |
| 2026-05-06 09:09 | 33.89072 | -84.89305 | 10191 ft | 364 kts | 116° |
| 2026-05-06 09:09 | 33.88105 | -84.86515 | 9708 ft | 357 kts | 116° |
| 2026-05-06 09:09 | 33.87159 | -84.83792 | 9331 ft | 347 kts | 116° |
| 2026-05-06 09:09 | 33.86243 | -84.81163 | 9031 ft | 335 kts | 116° |
| 2026-05-06 09:10 | 33.85352 | -84.78610 | 8724 ft | 325 kts | 116° |
| 2026-05-06 09:10 | 33.84493 | -84.76141 | 8422 ft | 315 kts | 116° |
| 2026-05-06 09:10 | 33.83655 | -84.73739 | 8125 ft | 306 kts | 116° |
| 2026-05-06 09:10 | 33.82841 | -84.71409 | 7838 ft | 298 kts | 116° |
| 2026-05-06 09:11 | 33.82047 | -84.69138 | 7544 ft | 291 kts | 116° |
| 2026-05-06 09:11 | 33.81273 | -84.66924 | 7260 ft | 283 kts | 116° |
| 2026-05-06 09:11 | 33.80515 | -84.64757 | 6969 ft | 279 kts | 115° |
| 2026-05-06 09:11 | 33.79763 | -84.62613 | 6682 ft | 277 kts | 115° |
| 2026-05-06 09:12 | 33.79029 | -84.60515 | 6397 ft | 275 kts | 115° |
| 2026-05-06 09:12 | 33.78287 | -84.58401 | 6113 ft | 274 kts | 115° |
| 2026-05-06 09:12 | 33.77578 | -84.56377 | 5823 ft | 272 kts | 115° |
| 2026-05-06 09:12 | 33.76847 | -84.54292 | 5527 ft | 270 kts | 115° |
| 2026-05-06 09:13 | 33.76117 | -84.52217 | 5285 ft | 269 kts | 116° |
| 2026-05-06 09:13 | 33.75390 | -84.50150 | 5042 ft | 267 kts | 116° |
| 2026-05-06 09:13 | 33.74673 | -84.48109 | 4860 ft | 262 kts | 116° |
| 2026-05-06 09:13 | 33.73953 | -84.46064 | 4890 ft | 266 kts | 116° |
| 2026-05-06 09:14 | 33.73235 | -84.44025 | 4892 ft | 268 kts | 116° |
| 2026-05-06 09:14 | 33.72514 | -84.41978 | 4896 ft | 265 kts | 116° |
| 2026-05-06 09:14 | 33.71792 | -84.39932 | 4893 ft | 264 kts | 116° |
| 2026-05-06 09:14 | 33.71074 | -84.37898 | 4897 ft | 268 kts | 116° |
| 2026-05-06 09:15 | 33.70355 | -84.35856 | 4906 ft | 263 kts | 116° |
| 2026-05-06 09:15 | 33.69669 | -84.33904 | 4892 ft | 246 kts | 116° |
| 2026-05-06 09:15 | 33.69004 | -84.32027 | 4888 ft | 242 kts | 117° |
| 2026-05-06 09:15 | 33.68347 | -84.30177 | 4889 ft | 239 kts | 117° |
| 2026-05-06 09:16 | 33.67382 | -84.28634 | 4889 ft | 227 kts | 151° |
| 2026-05-06 09:16 | 33.65995 | -84.28213 | 4864 ft | 190 kts | 194° |
| 2026-05-06 09:16 | 33.65052 | -84.28995 | 4889 ft | 157 kts | 243° |
| 2026-05-06 09:16 | 33.64757 | -84.30265 | 4688 ft | 163 kts | 268° |
| 2026-05-06 09:17 | 33.64851 | -84.31680 | 4026 ft | 178 kts | 270° |
| 2026-05-06 09:17 | 33.64941 | -84.33206 | 3358 ft | 188 kts | 267° |
| 2026-05-06 09:17 | 33.64968 | -84.34792 | 2664 ft | 193 kts | 264° |
| 2026-05-06 09:17 | 33.64963 | -84.36423 | 1979 ft | 195 kts | 264° |
| 2026-05-06 09:18 | 33.64964 | -84.38002 | 1519 ft | 186 kts | 266° |
| 2026-05-06 09:18 | 33.64960 | -84.39506 | 1289 ft | 173 kts | 267° |
| 2026-05-06 09:18 | 33.64956 | -84.40880 | 1049 ft | 158 kts | 266° |
| 2026-05-06 09:18 | 33.64953 | -84.42109 | 1007 ft | 122 kts | 269° |
| 2026-05-06 09:19 | 33.64922 | -84.42736 | 1007 ft | 33 kts | 245° |
| 2026-05-06 09:19 | 33.64817 | -84.42871 | 1007 ft | 11 kts | 201° |
| 2026-05-06 09:19 | 33.64755 | -84.42876 | 1007 ft | 7 kts | 180° |
| 2026-05-06 09:19 | 33.64716 | -84.42876 | 1008 ft | 4 kts | 180° |
| 2026-05-06 09:20 | 33.64678 | -84.42870 | 1008 ft | 12 kts | 164° |
| 2026-05-06 09:20 | 33.64561 | -84.42805 | 1007 ft | 21 kts | 152° |
| 2026-05-06 09:20 | 33.64466 | -84.42785 | 1007 ft | 9 kts | 204° |
| 2026-05-06 09:20 | 33.64364 | -84.42806 | 1007 ft | 18 kts | 180° |
| 2026-05-06 09:21 | 33.64249 | -84.42806 | 1007 ft | 16 kts | 180° |
| 2026-05-06 09:21 | 33.64190 | -84.42851 | 1007 ft | 8 kts | 255° |
| 2026-05-06 09:21 | 33.64189 | -84.42894 | 1007 ft | 0 kts | 269° |